sensor_id;sensor_type;location;lat;lon;timestamp;temperature;humidity
9772;DHT22;4925;52.588;13.370;2023-11-19T00:01:38;5.60;99.90
9772;DHT22;4925;52.588;13.370;2023-11-19T00:04:04;5.60;99.90
9772;DHT22;4925;52.588;13.370;2023-11-19T00:06:30;5.60;99.90
9772;DHT22;4925;52.588;13.370;2023-11-19T00:08:55;5.60;99.90
9772;DHT22;4925;52.588;13.370;2023-11-19T00:11:22;5.60;99.90
9772;DHT22;4925;52.588;13.370;2023-11-19T00:13:48;5.70;99.90
9772;DHT22;4925;52.588;13.370;2023-11-19T00:16:16;5.60;99.90
9772;DHT22;4925;52.588;13.370;2023-11-19T00:18:41;5.50;99.90
9772;DHT22;4925;52.588;13.370;2023-11-19T00:21:07;5.50;99.90
9772;DHT22;4925;52.588;13.370;2023-11-19T00:23:37;5.60;99.90
9772;DHT22;4925;52.588;13.370;2023-11-19T00:26:03;5.50;99.90
9772;DHT22;4925;52.588;13.370;2023-11-19T00:28:33;5.50;99.90
9772;DHT22;4925;52.588;13.370;2023-11-19T00:31:05;5.50;99.90
9772;DHT22;4925;52.588;13.370;2023-11-19T00:33:31;5.40;99.90
9772;DHT22;4925;52.588;13.370;2023-11-19T00:35:56;5.40;99.90
9772;DHT22;4925;52.588;13.370;2023-11-19T00:38:22;5.40;99.90
9772;DHT22;4925;52.588;13.370;2023-11-19T00:40:48;5.40;99.90
9772;DHT22;4925;52.588;13.370;2023-11-19T00:43:14;5.40;99.90
9772;DHT22;4925;52.588;13.370;2023-11-19T00:45:42;5.40;99.90
9772;DHT22;4925;52.588;13.370;2023-11-19T00:48:08;5.50;99.90
9772;DHT22;4925;52.588;13.370;2023-11-19T00:50:34;5.60;99.90
9772;DHT22;4925;52.588;13.370;2023-11-19T00:53:01;5.60;99.90
9772;DHT22;4925;52.588;13.370;2023-11-19T00:55:29;5.50;99.90
9772;DHT22;4925;52.588;13.370;2023-11-19T00:57:55;5.60;99.90
9772;DHT22;4925;52.588;13.370;2023-11-19T01:00:22;5.70;99.90
9772;DHT22;4925;52.588;13.370;2023-11-19T01:02:49;5.80;99.90
9772;DHT22;4925;52.588;13.370;2023-11-19T01:05:15;5.80;99.90
9772;DHT22;4925;52.588;13.370;2023-11-19T01:07:41;5.80;99.90
9772;DHT22;4925;52.588;13.370;2023-11-19T01:10:10;5.80;99.90
9772;DHT22;4925;52.588;13.370;2023-11-19T01:12:35;5.80;99.90
9772;DHT22;4925;52.588;13.370;2023-11-19T01:15:07;5.80;99.90
9772;DHT22;4925;52.588;13.370;2023-11-19T01:17:36;5.90;99.90
9772;DHT22;4925;52.588;13.370;2023-11-19T01:20:01;5.80;99.90
9772;DHT22;4925;52.588;13.370;2023-11-19T01:22:27;5.90;99.90
9772;DHT22;4925;52.588;13.370;2023-11-19T01:24:56;5.90;99.90
9772;DHT22;4925;52.588;13.370;2023-11-19T01:27:24;5.80;99.90
9772;DHT22;4925;52.588;13.370;2023-11-19T01:29:50;5.80;99.90
9772;DHT22;4925;52.588;13.370;2023-11-19T01:32:16;5.80;99.90
9772;DHT22;4925;52.588;13.370;2023-11-19T01:34:41;5.80;99.90
9772;DHT22;4925;52.588;13.370;2023-11-19T01:37:07;5.80;99.90
9772;DHT22;4925;52.588;13.370;2023-11-19T01:39:36;5.70;99.90
9772;DHT22;4925;52.588;13.370;2023-11-19T01:42:02;5.80;99.90
9772;DHT22;4925;52.588;13.370;2023-11-19T01:44:30;5.80;99.90
9772;DHT22;4925;52.588;13.370;2023-11-19T01:46:57;5.80;99.90
9772;DHT22;4925;52.588;13.370;2023-11-19T01:49:23;5.80;99.90
9772;DHT22;4925;52.588;13.370;2023-11-19T01:51:49;5.80;99.90
9772;DHT22;4925;52.588;13.370;2023-11-19T01:54:15;5.70;99.90
9772;DHT22;4925;52.588;13.370;2023-11-19T01:56:42;5.80;99.90
9772;DHT22;4925;52.588;13.370;2023-11-19T01:59:10;5.70;99.90
9772;DHT22;4925;52.588;13.370;2023-11-19T02:01:37;5.80;99.90
9772;DHT22;4925;52.588;13.370;2023-11-19T02:04:07;5.70;99.90
9772;DHT22;4925;52.588;13.370;2023-11-19T02:06:34;5.80;99.90
9772;DHT22;4925;52.588;13.370;2023-11-19T02:09:01;5.80;99.90
9772;DHT22;4925;52.588;13.370;2023-11-19T02:11:28;5.80;99.90
9772;DHT22;4925;52.588;13.370;2023-11-19T02:13:56;5.80;99.90
9772;DHT22;4925;52.588;13.370;2023-11-19T02:16:22;5.80;99.90
9772;DHT22;4925;52.588;13.370;2023-11-19T02:18:48;5.80;99.90
9772;DHT22;4925;52.588;13.370;2023-11-19T02:21:14;5.70;99.90
9772;DHT22;4925;52.588;13.370;2023-11-19T02:23:41;5.80;99.90
9772;DHT22;4925;52.588;13.370;2023-11-19T02:26:28;5.70;99.90
9772;DHT22;4925;52.588;13.370;2023-11-19T02:28:55;5.70;99.90
9772;DHT22;4925;52.588;13.370;2023-11-19T02:31:22;5.60;99.90
9772;DHT22;4925;52.588;13.370;2023-11-19T02:33:48;5.60;99.90
9772;DHT22;4925;52.588;13.370;2023-11-19T02:36:15;5.80;99.90
9772;DHT22;4925;52.588;13.370;2023-11-19T02:38:42;5.70;99.90
9772;DHT22;4925;52.588;13.370;2023-11-19T02:41:10;5.70;99.90
9772;DHT22;4925;52.588;13.370;2023-11-19T02:43:37;5.80;99.90
9772;DHT22;4925;52.588;13.370;2023-11-19T02:46:05;5.80;99.90
9772;DHT22;4925;52.588;13.370;2023-11-19T02:48:35;5.90;99.90
9772;DHT22;4925;52.588;13.370;2023-11-19T02:51:01;5.80;99.90
9772;DHT22;4925;52.588;13.370;2023-11-19T02:53:32;5.90;99.90
9772;DHT22;4925;52.588;13.370;2023-11-19T02:55:58;5.90;99.90
9772;DHT22;4925;52.588;13.370;2023-11-19T02:58:32;5.90;99.90
9772;DHT22;4925;52.588;13.370;2023-11-19T03:00:57;5.80;99.90
9772;DHT22;4925;52.588;13.370;2023-11-19T03:03:25;5.80;99.90
9772;DHT22;4925;52.588;13.370;2023-11-19T03:05:57;5.90;99.90
9772;DHT22;4925;52.588;13.370;2023-11-19T03:08:23;5.80;99.90
9772;DHT22;4925;52.588;13.370;2023-11-19T03:10:49;5.90;99.90
9772;DHT22;4925;52.588;13.370;2023-11-19T03:13:15;5.90;99.90
9772;DHT22;4925;52.588;13.370;2023-11-19T03:15:43;5.90;99.90
9772;DHT22;4925;52.588;13.370;2023-11-19T03:18:10;6.00;99.90
9772;DHT22;4925;52.588;13.370;2023-11-19T03:20:36;5.90;99.90
9772;DHT22;4925;52.588;13.370;2023-11-19T03:23:03;5.90;99.90
9772;DHT22;4925;52.588;13.370;2023-11-19T03:25:29;5.90;99.90
9772;DHT22;4925;52.588;13.370;2023-11-19T03:28:02;6.00;99.90
9772;DHT22;4925;52.588;13.370;2023-11-19T03:30:29;6.00;99.90
9772;DHT22;4925;52.588;13.370;2023-11-19T03:32:56;6.00;99.90
9772;DHT22;4925;52.588;13.370;2023-11-19T03:35:22;5.90;99.90
9772;DHT22;4925;52.588;13.370;2023-11-19T03:37:51;5.90;99.90
9772;DHT22;4925;52.588;13.370;2023-11-19T03:40:17;5.80;99.90
9772;DHT22;4925;52.588;13.370;2023-11-19T03:42:46;5.80;99.90
9772;DHT22;4925;52.588;13.370;2023-11-19T03:45:12;5.70;99.90
9772;DHT22;4925;52.588;13.370;2023-11-19T03:47:41;5.60;99.90
9772;DHT22;4925;52.588;13.370;2023-11-19T03:50:07;5.60;99.90
9772;DHT22;4925;52.588;13.370;2023-11-19T03:52:36;5.60;99.90
9772;DHT22;4925;52.588;13.370;2023-11-19T03:55:01;5.40;99.90
9772;DHT22;4925;52.588;13.370;2023-11-19T03:57:30;5.40;99.90
9772;DHT22;4925;52.588;13.370;2023-11-19T03:59:56;5.40;99.90
9772;DHT22;4925;52.588;13.370;2023-11-19T04:02:23;5.20;99.90
9772;DHT22;4925;52.588;13.370;2023-11-19T04:04:54;5.30;99.90
9772;DHT22;4925;52.588;13.370;2023-11-19T04:07:22;5.30;99.90
9772;DHT22;4925;52.588;13.370;2023-11-19T04:09:49;5.30;99.90
9772;DHT22;4925;52.588;13.370;2023-11-19T04:12:14;5.30;99.90
9772;DHT22;4925;52.588;13.370;2023-11-19T04:14:40;5.30;99.90
9772;DHT22;4925;52.588;13.370;2023-11-19T04:17:06;5.30;99.90
9772;DHT22;4925;52.588;13.370;2023-11-19T04:19:32;5.20;99.90
9772;DHT22;4925;52.588;13.370;2023-11-19T04:21:58;5.10;99.90
9772;DHT22;4925;52.588;13.370;2023-11-19T04:24:24;5.10;99.90
9772;DHT22;4925;52.588;13.370;2023-11-19T04:26:50;5.10;99.90
9772;DHT22;4925;52.588;13.370;2023-11-19T04:29:16;5.10;99.90
9772;DHT22;4925;52.588;13.370;2023-11-19T04:31:44;5.20;99.90
9772;DHT22;4925;52.588;13.370;2023-11-19T04:34:12;5.20;99.90
9772;DHT22;4925;52.588;13.370;2023-11-19T04:36:40;5.30;99.90
9772;DHT22;4925;52.588;13.370;2023-11-19T04:39:07;5.40;99.90
9772;DHT22;4925;52.588;13.370;2023-11-19T04:41:53;5.40;99.90
9772;DHT22;4925;52.588;13.370;2023-11-19T04:44:18;5.40;99.90
9772;DHT22;4925;52.588;13.370;2023-11-19T04:46:47;5.30;99.90
9772;DHT22;4925;52.588;13.370;2023-11-19T04:49:14;5.40;99.90
9772;DHT22;4925;52.588;13.370;2023-11-19T04:51:46;5.40;99.90
9772;DHT22;4925;52.588;13.370;2023-11-19T04:54:16;5.40;99.90
9772;DHT22;4925;52.588;13.370;2023-11-19T04:56:45;5.40;99.90
9772;DHT22;4925;52.588;13.370;2023-11-19T04:59:11;5.30;99.90
9772;DHT22;4925;52.588;13.370;2023-11-19T05:01:38;5.30;99.90
9772;DHT22;4925;52.588;13.370;2023-11-19T05:04:04;5.40;99.90
9772;DHT22;4925;52.588;13.370;2023-11-19T05:06:31;5.30;99.90
9772;DHT22;4925;52.588;13.370;2023-11-19T05:09:00;5.30;99.90
9772;DHT22;4925;52.588;13.370;2023-11-19T05:11:31;5.30;99.90
9772;DHT22;4925;52.588;13.370;2023-11-19T05:13:57;5.30;99.90
9772;DHT22;4925;52.588;13.370;2023-11-19T05:16:23;5.30;99.90
9772;DHT22;4925;52.588;13.370;2023-11-19T05:18:49;5.30;99.90
9772;DHT22;4925;52.588;13.370;2023-11-19T05:21:14;5.30;99.90
9772;DHT22;4925;52.588;13.370;2023-11-19T05:23:41;5.30;99.90
9772;DHT22;4925;52.588;13.370;2023-11-19T05:26:07;5.20;99.90
9772;DHT22;4925;52.588;13.370;2023-11-19T05:28:33;5.20;99.90
9772;DHT22;4925;52.588;13.370;2023-11-19T05:30:58;5.20;99.90
9772;DHT22;4925;52.588;13.370;2023-11-19T05:33:24;5.20;99.90
9772;DHT22;4925;52.588;13.370;2023-11-19T05:35:50;5.10;99.90
9772;DHT22;4925;52.588;13.370;2023-11-19T05:38:15;5.10;99.90
9772;DHT22;4925;52.588;13.370;2023-11-19T05:40:43;5.10;99.90
9772;DHT22;4925;52.588;13.370;2023-11-19T05:43:09;5.20;99.90
9772;DHT22;4925;52.588;13.370;2023-11-19T05:45:34;5.20;99.90
9772;DHT22;4925;52.588;13.370;2023-11-19T05:48:00;5.20;99.90
9772;DHT22;4925;52.588;13.370;2023-11-19T05:50:26;5.20;99.90
9772;DHT22;4925;52.588;13.370;2023-11-19T05:52:52;5.30;99.90
9772;DHT22;4925;52.588;13.370;2023-11-19T05:55:19;5.30;99.90
9772;DHT22;4925;52.588;13.370;2023-11-19T05:57:45;5.30;99.90
9772;DHT22;4925;52.588;13.370;2023-11-19T06:00:11;5.30;99.90
9772;DHT22;4925;52.588;13.370;2023-11-19T06:02:40;5.40;99.90
9772;DHT22;4925;52.588;13.370;2023-11-19T06:05:06;5.40;99.90
9772;DHT22;4925;52.588;13.370;2023-11-19T06:07:34;5.50;99.90
9772;DHT22;4925;52.588;13.370;2023-11-19T06:10:02;5.50;99.90
9772;DHT22;4925;52.588;13.370;2023-11-19T06:12:31;5.50;99.90
9772;DHT22;4925;52.588;13.370;2023-11-19T06:14:57;5.60;99.90
9772;DHT22;4925;52.588;13.370;2023-11-19T06:17:23;5.60;99.90
9772;DHT22;4925;52.588;13.370;2023-11-19T06:19:49;5.50;99.90
9772;DHT22;4925;52.588;13.370;2023-11-19T06:22:15;5.60;99.90
9772;DHT22;4925;52.588;13.370;2023-11-19T06:24:40;5.60;99.90
9772;DHT22;4925;52.588;13.370;2023-11-19T06:27:06;5.50;99.90
9772;DHT22;4925;52.588;13.370;2023-11-19T06:29:32;5.50;99.90
9772;DHT22;4925;52.588;13.370;2023-11-19T06:31:58;5.60;99.90
9772;DHT22;4925;52.588;13.370;2023-11-19T06:34:23;5.60;99.90
9772;DHT22;4925;52.588;13.370;2023-11-19T06:36:49;5.70;99.90
9772;DHT22;4925;52.588;13.370;2023-11-19T06:39:15;5.70;99.90
9772;DHT22;4925;52.588;13.370;2023-11-19T06:41:46;5.70;99.90
9772;DHT22;4925;52.588;13.370;2023-11-19T06:44:14;5.70;99.90
9772;DHT22;4925;52.588;13.370;2023-11-19T06:46:40;5.70;99.90
9772;DHT22;4925;52.588;13.370;2023-11-19T06:49:05;5.70;99.90
9772;DHT22;4925;52.588;13.370;2023-11-19T06:51:33;5.70;99.90
9772;DHT22;4925;52.588;13.370;2023-11-19T06:53:59;5.80;99.90
9772;DHT22;4925;52.588;13.370;2023-11-19T06:56:25;5.80;99.90
9772;DHT22;4925;52.588;13.370;2023-11-19T06:58:51;5.70;99.90
9772;DHT22;4925;52.588;13.370;2023-11-19T07:01:17;5.80;99.90
9772;DHT22;4925;52.588;13.370;2023-11-19T07:03:46;5.80;99.90
9772;DHT22;4925;52.588;13.370;2023-11-19T07:06:12;5.80;99.90
9772;DHT22;4925;52.588;13.370;2023-11-19T07:08:41;5.70;99.90
9772;DHT22;4925;52.588;13.370;2023-11-19T07:11:10;5.80;99.90
9772;DHT22;4925;52.588;13.370;2023-11-19T07:13:37;5.80;99.90
9772;DHT22;4925;52.588;13.370;2023-11-19T07:16:03;5.80;99.90
9772;DHT22;4925;52.588;13.370;2023-11-19T07:18:30;5.90;99.90
9772;DHT22;4925;52.588;13.370;2023-11-19T07:20:57;5.90;99.90
9772;DHT22;4925;52.588;13.370;2023-11-19T07:23:23;6.00;99.90
9772;DHT22;4925;52.588;13.370;2023-11-19T07:25:48;6.00;99.90
9772;DHT22;4925;52.588;13.370;2023-11-19T07:28:16;6.10;99.90
9772;DHT22;4925;52.588;13.370;2023-11-19T07:30:42;6.00;99.90
9772;DHT22;4925;52.588;13.370;2023-11-19T07:33:21;6.20;99.90
9772;DHT22;4925;52.588;13.370;2023-11-19T07:35:47;6.70;99.90
9772;DHT22;4925;52.588;13.370;2023-11-19T07:38:15;6.90;99.90
9772;DHT22;4925;52.588;13.370;2023-11-19T07:40:40;6.90;99.90
9772;DHT22;4925;52.588;13.370;2023-11-19T07:43:06;6.80;99.90
9772;DHT22;4925;52.588;13.370;2023-11-19T07:45:32;6.90;99.90
9772;DHT22;4925;52.588;13.370;2023-11-19T07:47:58;6.80;99.90
9772;DHT22;4925;52.588;13.370;2023-11-19T07:50:26;6.80;99.90
9772;DHT22;4925;52.588;13.370;2023-11-19T07:52:53;6.90;99.90
9772;DHT22;4925;52.588;13.370;2023-11-19T07:55:18;6.90;99.90
9772;DHT22;4925;52.588;13.370;2023-11-19T07:57:48;6.90;99.90
9772;DHT22;4925;52.588;13.370;2023-11-19T08:00:14;6.80;99.90
9772;DHT22;4925;52.588;13.370;2023-11-19T08:02:41;6.70;99.90
9772;DHT22;4925;52.588;13.370;2023-11-19T08:05:07;6.60;99.90
9772;DHT22;4925;52.588;13.370;2023-11-19T08:07:34;6.60;99.90
9772;DHT22;4925;52.588;13.370;2023-11-19T08:10:00;6.60;99.90
9772;DHT22;4925;52.588;13.370;2023-11-19T08:12:25;6.70;99.90
9772;DHT22;4925;52.588;13.370;2023-11-19T08:14:53;6.70;99.90
9772;DHT22;4925;52.588;13.370;2023-11-19T08:17:18;6.70;99.90
9772;DHT22;4925;52.588;13.370;2023-11-19T08:19:45;6.70;99.90
9772;DHT22;4925;52.588;13.370;2023-11-19T08:22:11;6.80;99.90
9772;DHT22;4925;52.588;13.370;2023-11-19T08:24:36;6.80;99.90
9772;DHT22;4925;52.588;13.370;2023-11-19T08:27:02;6.90;99.90
9772;DHT22;4925;52.588;13.370;2023-11-19T08:29:28;7.00;99.90
9772;DHT22;4925;52.588;13.370;2023-11-19T08:31:53;7.10;99.90
9772;DHT22;4925;52.588;13.370;2023-11-19T08:34:23;7.10;99.90
9772;DHT22;4925;52.588;13.370;2023-11-19T08:36:51;7.20;99.90
9772;DHT22;4925;52.588;13.370;2023-11-19T08:39:20;7.30;99.90
9772;DHT22;4925;52.588;13.370;2023-11-19T08:41:48;7.20;99.90
9772;DHT22;4925;52.588;13.370;2023-11-19T08:44:14;7.20;99.90
9772;DHT22;4925;52.588;13.370;2023-11-19T08:46:49;7.20;99.90
9772;DHT22;4925;52.588;13.370;2023-11-19T08:49:15;7.20;99.90
9772;DHT22;4925;52.588;13.370;2023-11-19T08:51:42;7.20;99.90
9772;DHT22;4925;52.588;13.370;2023-11-19T08:54:08;7.40;99.90
9772;DHT22;4925;52.588;13.370;2023-11-19T08:56:34;7.50;99.90
9772;DHT22;4925;52.588;13.370;2023-11-19T08:59:01;7.50;99.90
9772;DHT22;4925;52.588;13.370;2023-11-19T09:01:29;7.60;99.90
9772;DHT22;4925;52.588;13.370;2023-11-19T09:03:56;7.60;99.90
9772;DHT22;4925;52.588;13.370;2023-11-19T09:06:23;7.70;99.90
9772;DHT22;4925;52.588;13.370;2023-11-19T09:08:49;7.80;99.90
9772;DHT22;4925;52.588;13.370;2023-11-19T09:11:15;7.90;99.90
9772;DHT22;4925;52.588;13.370;2023-11-19T09:13:41;8.10;99.90
9772;DHT22;4925;52.588;13.370;2023-11-19T09:16:08;8.10;99.90
9772;DHT22;4925;52.588;13.370;2023-11-19T09:18:34;8.20;99.90
9772;DHT22;4925;52.588;13.370;2023-11-19T09:21:00;8.10;99.90
9772;DHT22;4925;52.588;13.370;2023-11-19T09:23:26;8.20;99.90
9772;DHT22;4925;52.588;13.370;2023-11-19T09:25:53;8.40;99.90
9772;DHT22;4925;52.588;13.370;2023-11-19T09:28:20;8.40;99.90
9772;DHT22;4925;52.588;13.370;2023-11-19T09:30:46;8.50;99.90
9772;DHT22;4925;52.588;13.370;2023-11-19T09:33:11;8.50;99.90
9772;DHT22;4925;52.588;13.370;2023-11-19T09:35:37;8.60;99.90
9772;DHT22;4925;52.588;13.370;2023-11-19T09:38:04;8.70;99.90
9772;DHT22;4925;52.588;13.370;2023-11-19T09:40:35;8.80;99.90
9772;DHT22;4925;52.588;13.370;2023-11-19T09:43:04;8.90;99.90
9772;DHT22;4925;52.588;13.370;2023-11-19T09:45:32;9.00;99.90
9772;DHT22;4925;52.588;13.370;2023-11-19T09:48:08;9.20;99.90
9772;DHT22;4925;52.588;13.370;2023-11-19T09:50:34;9.40;99.90
9772;DHT22;4925;52.588;13.370;2023-11-19T09:53:00;9.50;99.90
9772;DHT22;4925;52.588;13.370;2023-11-19T09:55:25;9.50;99.90
9772;DHT22;4925;52.588;13.370;2023-11-19T09:57:53;9.50;99.90
9772;DHT22;4925;52.588;13.370;2023-11-19T10:00:19;9.60;99.90
9772;DHT22;4925;52.588;13.370;2023-11-19T10:02:47;9.70;99.90
9772;DHT22;4925;52.588;13.370;2023-11-19T10:05:14;9.70;99.90
9772;DHT22;4925;52.588;13.370;2023-11-19T10:07:40;9.80;99.90
9772;DHT22;4925;52.588;13.370;2023-11-19T10:10:06;9.90;99.90
9772;DHT22;4925;52.588;13.370;2023-11-19T10:12:32;10.00;99.90
9772;DHT22;4925;52.588;13.370;2023-11-19T10:14:59;10.00;99.90
9772;DHT22;4925;52.588;13.370;2023-11-19T10:17:34;10.00;99.90
9772;DHT22;4925;52.588;13.370;2023-11-19T10:20:01;10.00;99.90
9772;DHT22;4925;52.588;13.370;2023-11-19T10:22:30;10.10;99.90
9772;DHT22;4925;52.588;13.370;2023-11-19T10:24:58;10.20;99.90
9772;DHT22;4925;52.588;13.370;2023-11-19T10:27:27;10.30;99.90
9772;DHT22;4925;52.588;13.370;2023-11-19T10:29:53;10.30;99.90
9772;DHT22;4925;52.588;13.370;2023-11-19T10:32:19;10.30;99.90
9772;DHT22;4925;52.588;13.370;2023-11-19T10:34:45;10.40;99.90
9772;DHT22;4925;52.588;13.370;2023-11-19T10:37:28;10.50;99.90
9772;DHT22;4925;52.588;13.370;2023-11-19T10:40:03;10.60;99.90
9772;DHT22;4925;52.588;13.370;2023-11-19T10:42:35;10.70;99.90
9772;DHT22;4925;52.588;13.370;2023-11-19T10:45:03;10.80;99.90
9772;DHT22;4925;52.588;13.370;2023-11-19T10:47:31;10.80;99.90
9772;DHT22;4925;52.588;13.370;2023-11-19T10:49:59;10.90;99.90
9772;DHT22;4925;52.588;13.370;2023-11-19T10:52:27;10.90;99.90
9772;DHT22;4925;52.588;13.370;2023-11-19T10:54:55;10.90;99.90
9772;DHT22;4925;52.588;13.370;2023-11-19T10:57:23;11.00;99.90
9772;DHT22;4925;52.588;13.370;2023-11-19T10:59:55;11.10;99.90
9772;DHT22;4925;52.588;13.370;2023-11-19T11:02:28;11.10;99.90
9772;DHT22;4925;52.588;13.370;2023-11-19T11:04:57;11.20;99.90
9772;DHT22;4925;52.588;13.370;2023-11-19T11:07:24;11.20;99.90
9772;DHT22;4925;52.588;13.370;2023-11-19T11:09:53;11.30;99.90
9772;DHT22;4925;52.588;13.370;2023-11-19T11:12:22;11.40;99.90
9772;DHT22;4925;52.588;13.370;2023-11-19T11:14:52;11.50;99.90
9772;DHT22;4925;52.588;13.370;2023-11-19T11:17:29;11.60;99.90
9772;DHT22;4925;52.588;13.370;2023-11-19T11:20:01;11.70;99.90
9772;DHT22;4925;52.588;13.370;2023-11-19T11:26:00;11.80;99.90
9772;DHT22;4925;52.588;13.370;2023-11-19T11:37:59;12.30;99.90
9772;DHT22;4925;52.588;13.370;2023-11-19T11:40:27;12.40;99.90
9772;DHT22;4925;52.588;13.370;2023-11-19T11:42:53;12.50;99.90
9772;DHT22;4925;52.588;13.370;2023-11-19T11:45:34;12.50;99.90
9772;DHT22;4925;52.588;13.370;2023-11-19T11:48:14;12.50;99.90
9772;DHT22;4925;52.588;13.370;2023-11-19T11:50:55;12.60;99.90
9772;DHT22;4925;52.588;13.370;2023-11-19T11:53:23;12.60;99.90
9772;DHT22;4925;52.588;13.370;2023-11-19T11:55:59;12.50;99.90
9772;DHT22;4925;52.588;13.370;2023-11-19T11:58:32;12.50;99.90
9772;DHT22;4925;52.588;13.370;2023-11-19T12:01:01;12.40;99.90
9772;DHT22;4925;52.588;13.370;2023-11-19T12:03:31;12.40;99.90
9772;DHT22;4925;52.588;13.370;2023-11-19T12:05:59;12.40;99.90
9772;DHT22;4925;52.588;13.370;2023-11-19T12:08:29;12.40;99.90
9772;DHT22;4925;52.588;13.370;2023-11-19T12:10:58;12.40;99.90
9772;DHT22;4925;52.588;13.370;2023-11-19T12:14:14;12.50;99.90
9772;DHT22;4925;52.588;13.370;2023-11-19T12:16:15;12.50;99.90
9772;DHT22;4925;52.588;13.370;2023-11-19T12:18:41;12.50;99.90
9772;DHT22;4925;52.588;13.370;2023-11-19T12:21:08;12.50;99.90
9772;DHT22;4925;52.588;13.370;2023-11-19T12:23:45;12.50;99.90
9772;DHT22;4925;52.588;13.370;2023-11-19T12:26:33;12.40;99.90
9772;DHT22;4925;52.588;13.370;2023-11-19T12:29:00;12.50;99.90
9772;DHT22;4925;52.588;13.370;2023-11-19T12:31:29;12.60;99.90
9772;DHT22;4925;52.588;13.370;2023-11-19T12:33:57;12.40;99.90
9772;DHT22;4925;52.588;13.370;2023-11-19T12:36:24;12.40;99.90
9772;DHT22;4925;52.588;13.370;2023-11-19T12:38:51;12.40;99.90
9772;DHT22;4925;52.588;13.370;2023-11-19T12:41:17;12.30;99.90
9772;DHT22;4925;52.588;13.370;2023-11-19T12:43:46;12.30;99.90
9772;DHT22;4925;52.588;13.370;2023-11-19T12:46:22;12.20;99.90
9772;DHT22;4925;52.588;13.370;2023-11-19T12:48:50;12.10;99.90
9772;DHT22;4925;52.588;13.370;2023-11-19T12:51:16;12.10;99.90
9772;DHT22;4925;52.588;13.370;2023-11-19T12:53:52;12.10;99.90
9772;DHT22;4925;52.588;13.370;2023-11-19T12:56:23;12.10;99.90
9772;DHT22;4925;52.588;13.370;2023-11-19T12:58:49;12.10;99.90
9772;DHT22;4925;52.588;13.370;2023-11-19T13:01:21;12.10;99.90
9772;DHT22;4925;52.588;13.370;2023-11-19T13:03:49;12.00;99.90
9772;DHT22;4925;52.588;13.370;2023-11-19T13:06:17;12.00;99.90
9772;DHT22;4925;52.588;13.370;2023-11-19T13:11:11;12.00;99.90
9772;DHT22;4925;52.588;13.370;2023-11-19T13:13:59;12.10;99.90
9772;DHT22;4925;52.588;13.370;2023-11-19T13:16:27;12.10;99.90
9772;DHT22;4925;52.588;13.370;2023-11-19T13:18:53;12.10;99.90
9772;DHT22;4925;52.588;13.370;2023-11-19T13:21:22;12.30;99.90
9772;DHT22;4925;52.588;13.370;2023-11-19T13:23:49;12.20;99.90
9772;DHT22;4925;52.588;13.370;2023-11-19T13:26:16;12.30;99.90
9772;DHT22;4925;52.588;13.370;2023-11-19T13:28:42;12.30;99.90
9772;DHT22;4925;52.588;13.370;2023-11-19T13:31:09;12.20;99.90
9772;DHT22;4925;52.588;13.370;2023-11-19T13:33:37;12.30;99.90
9772;DHT22;4925;52.588;13.370;2023-11-19T13:36:06;12.20;99.90
9772;DHT22;4925;52.588;13.370;2023-11-19T13:38:34;12.20;99.90
9772;DHT22;4925;52.588;13.370;2023-11-19T13:41:06;12.10;99.90
9772;DHT22;4925;52.588;13.370;2023-11-19T13:43:32;12.10;99.90
9772;DHT22;4925;52.588;13.370;2023-11-19T13:45:58;12.20;99.90
9772;DHT22;4925;52.588;13.370;2023-11-19T13:48:24;12.10;99.90
9772;DHT22;4925;52.588;13.370;2023-11-19T13:50:53;12.10;99.90
9772;DHT22;4925;52.588;13.370;2023-11-19T13:53:20;12.10;99.90
9772;DHT22;4925;52.588;13.370;2023-11-19T13:55:48;12.00;99.90
9772;DHT22;4925;52.588;13.370;2023-11-19T13:58:14;12.00;99.90
9772;DHT22;4925;52.588;13.370;2023-11-19T14:00:39;12.00;99.90
9772;DHT22;4925;52.588;13.370;2023-11-19T14:03:07;12.00;99.90
9772;DHT22;4925;52.588;13.370;2023-11-19T14:05:44;12.00;99.90
9772;DHT22;4925;52.588;13.370;2023-11-19T14:08:14;12.00;99.90
9772;DHT22;4925;52.588;13.370;2023-11-19T14:10:59;12.10;99.90
9772;DHT22;4925;52.588;13.370;2023-11-19T14:13:25;12.10;99.90
9772;DHT22;4925;52.588;13.370;2023-11-19T14:15:51;12.10;99.90
9772;DHT22;4925;52.588;13.370;2023-11-19T14:18:20;12.10;99.90
9772;DHT22;4925;52.588;13.370;2023-11-19T14:20:48;12.10;99.90
9772;DHT22;4925;52.588;13.370;2023-11-19T14:23:15;12.10;99.90
9772;DHT22;4925;52.588;13.370;2023-11-19T14:25:43;12.00;99.90
9772;DHT22;4925;52.588;13.370;2023-11-19T14:28:09;12.10;99.90
9772;DHT22;4925;52.588;13.370;2023-11-19T14:30:37;12.10;99.90
9772;DHT22;4925;52.588;13.370;2023-11-19T14:33:03;12.10;99.90
9772;DHT22;4925;52.588;13.370;2023-11-19T14:35:36;12.10;99.90
9772;DHT22;4925;52.588;13.370;2023-11-19T14:38:14;12.20;99.90
9772;DHT22;4925;52.588;13.370;2023-11-19T14:40:42;12.10;99.90
9772;DHT22;4925;52.588;13.370;2023-11-19T14:43:12;12.10;99.90
9772;DHT22;4925;52.588;13.370;2023-11-19T14:45:39;12.10;99.90
9772;DHT22;4925;52.588;13.370;2023-11-19T14:48:05;12.00;99.90
9772;DHT22;4925;52.588;13.370;2023-11-19T14:50:35;12.00;99.90
9772;DHT22;4925;52.588;13.370;2023-11-19T14:53:01;12.00;99.90
9772;DHT22;4925;52.588;13.370;2023-11-19T14:55:29;12.00;99.90
9772;DHT22;4925;52.588;13.370;2023-11-19T14:57:54;12.00;99.90
9772;DHT22;4925;52.588;13.370;2023-11-19T15:00:22;11.90;99.90
9772;DHT22;4925;52.588;13.370;2023-11-19T15:02:48;11.90;99.90
9772;DHT22;4925;52.588;13.370;2023-11-19T15:05:14;12.00;99.90
9772;DHT22;4925;52.588;13.370;2023-11-19T15:07:45;12.00;99.90
9772;DHT22;4925;52.588;13.370;2023-11-19T15:10:20;12.00;99.90
9772;DHT22;4925;52.588;13.370;2023-11-19T15:12:49;11.90;99.90
9772;DHT22;4925;52.588;13.370;2023-11-19T15:15:17;11.90;99.90
9772;DHT22;4925;52.588;13.370;2023-11-19T15:17:43;11.60;99.90
9772;DHT22;4925;52.588;13.370;2023-11-19T15:20:09;11.90;99.90
9772;DHT22;4925;52.588;13.370;2023-11-19T15:22:36;11.90;99.90
9772;DHT22;4925;52.588;13.370;2023-11-19T15:25:02;11.90;99.90
9772;DHT22;4925;52.588;13.370;2023-11-19T15:27:29;11.80;99.90
9772;DHT22;4925;52.588;13.370;2023-11-19T15:29:54;11.80;99.90
9772;DHT22;4925;52.588;13.370;2023-11-19T15:32:20;11.80;99.90
9772;DHT22;4925;52.588;13.370;2023-11-19T15:34:48;11.80;99.90
9772;DHT22;4925;52.588;13.370;2023-11-19T15:37:14;12.30;99.90
9772;DHT22;4925;52.588;13.370;2023-11-19T15:39:42;11.80;99.90
9772;DHT22;4925;52.588;13.370;2023-11-19T15:42:12;11.80;99.90
9772;DHT22;4925;52.588;13.370;2023-11-19T15:44:38;11.80;99.90
9772;DHT22;4925;52.588;13.370;2023-11-19T15:47:07;11.80;99.90
9772;DHT22;4925;52.588;13.370;2023-11-19T15:49:33;11.90;99.90
9772;DHT22;4925;52.588;13.370;2023-11-19T15:52:01;11.80;99.90
9772;DHT22;4925;52.588;13.370;2023-11-19T15:54:30;11.80;99.90
9772;DHT22;4925;52.588;13.370;2023-11-19T15:56:55;11.80;99.90
9772;DHT22;4925;52.588;13.370;2023-11-19T15:59:24;11.80;99.90
9772;DHT22;4925;52.588;13.370;2023-11-19T16:01:51;11.80;99.90
9772;DHT22;4925;52.588;13.370;2023-11-19T16:04:17;11.80;99.90
9772;DHT22;4925;52.588;13.370;2023-11-19T16:06:43;11.80;99.90
9772;DHT22;4925;52.588;13.370;2023-11-19T16:09:14;11.70;99.90
9772;DHT22;4925;52.588;13.370;2023-11-19T16:11:41;11.80;99.90
9772;DHT22;4925;52.588;13.370;2023-11-19T16:14:10;11.80;99.90